sensor_id;sensor_type;location;lat;lon;timestamp;P1;durP1;ratioP1;P2;durP2;ratioP2
74632;SDS011;63139;52.018;8.552;2023-07-29T07:21:06;12.18;;;8.30;;
74632;SDS011;63139;52.018;8.552;2023-07-29T07:23:34;13.70;;;9.60;;
74632;SDS011;63139;52.018;8.552;2023-07-29T07:26:02;13.25;;;10.48;;
74632;SDS011;63139;52.018;8.552;2023-07-29T07:28:30;16.15;;;11.18;;
74632;SDS011;63139;52.018;8.552;2023-07-29T07:30:58;13.80;;;11.10;;
74632;SDS011;63139;52.018;8.552;2023-07-29T07:33:26;10.98;;;9.27;;
74632;SDS011;63139;52.018;8.552;2023-07-29T07:35:54;9.95;;;8.95;;
74632;SDS011;63139;52.018;8.552;2023-07-29T07:38:24;10.02;;;9.02;;
74632;SDS011;63139;52.018;8.552;2023-07-29T07:40:52;9.75;;;8.75;;
74632;SDS011;63139;52.018;8.552;2023-07-29T07:43:21;10.57;;;9.15;;
74632;SDS011;63139;52.018;8.552;2023-07-29T07:45:50;9.30;;;8.20;;
74632;SDS011;63139;52.018;8.552;2023-07-29T07:48:18;8.32;;;7.38;;
74632;SDS011;63139;52.018;8.552;2023-07-29T07:50:46;8.43;;;7.63;;
74632;SDS011;63139;52.018;8.552;2023-07-29T07:53:14;8.15;;;7.38;;
74632;SDS011;63139;52.018;8.552;2023-07-29T07:55:44;6.90;;;6.20;;
74632;SDS011;63139;52.018;8.552;2023-07-29T07:58:12;6.38;;;5.72;;
74632;SDS011;63139;52.018;8.552;2023-07-29T08:00:40;6.07;;;5.32;;
74632;SDS011;63139;52.018;8.552;2023-07-29T08:03:08;7.05;;;5.15;;
74632;SDS011;63139;52.018;8.552;2023-07-29T08:05:36;4.63;;;4.22;;
74632;SDS011;63139;52.018;8.552;2023-07-29T08:08:04;5.35;;;4.88;;
74632;SDS011;63139;52.018;8.552;2023-07-29T08:10:32;5.13;;;4.20;;
74632;SDS011;63139;52.018;8.552;2023-07-29T08:13:02;6.68;;;4.10;;
74632;SDS011;63139;52.018;8.552;2023-07-29T08:15:29;4.35;;;3.55;;
74632;SDS011;63139;52.018;8.552;2023-07-29T08:17:57;4.20;;;3.80;;
74632;SDS011;63139;52.018;8.552;2023-07-29T08:20:25;3.92;;;3.63;;
74632;SDS011;63139;52.018;8.552;2023-07-29T08:22:53;4.20;;;3.85;;
74632;SDS011;63139;52.018;8.552;2023-07-29T08:25:21;3.35;;;3.13;;
74632;SDS011;63139;52.018;8.552;2023-07-29T08:27:49;5.03;;;3.28;;
74632;SDS011;63139;52.018;8.552;2023-07-29T08:30:19;3.63;;;3.33;;
74632;SDS011;63139;52.018;8.552;2023-07-29T08:32:48;4.30;;;3.17;;
74632;SDS011;63139;52.018;8.552;2023-07-29T08:35:16;3.78;;;3.30;;
74632;SDS011;63139;52.018;8.552;2023-07-29T08:37:44;2.72;;;2.53;;
74632;SDS011;63139;52.018;8.552;2023-07-29T08:40:12;3.60;;;2.90;;
74632;SDS011;63139;52.018;8.552;2023-07-29T08:42:40;4.60;;;2.50;;
74632;SDS011;63139;52.018;8.552;2023-07-29T08:45:10;2.38;;;2.17;;
74632;SDS011;63139;52.018;8.552;2023-07-29T08:47:40;2.65;;;2.22;;
74632;SDS011;63139;52.018;8.552;2023-07-29T08:50:08;4.03;;;2.35;;
74632;SDS011;63139;52.018;8.552;2023-07-29T08:52:40;3.38;;;2.10;;
74632;SDS011;63139;52.018;8.552;2023-07-29T08:55:10;2.28;;;2.08;;
74632;SDS011;63139;52.018;8.552;2023-07-29T08:57:38;4.57;;;2.17;;
74632;SDS011;63139;52.018;8.552;2023-07-29T09:00:07;2.20;;;1.90;;
74632;SDS011;63139;52.018;8.552;2023-07-29T09:02:36;2.10;;;1.90;;
74632;SDS011;63139;52.018;8.552;2023-07-29T09:05:06;2.25;;;2.05;;
74632;SDS011;63139;52.018;8.552;2023-07-29T09:07:35;2.67;;;1.65;;
74632;SDS011;63139;52.018;8.552;2023-07-29T09:10:05;1.77;;;1.67;;
74632;SDS011;63139;52.018;8.552;2023-07-29T09:12:36;1.65;;;1.55;;
74632;SDS011;63139;52.018;8.552;2023-07-29T09:15:05;1.50;;;1.38;;
74632;SDS011;63139;52.018;8.552;2023-07-29T09:17:33;1.60;;;1.40;;
74632;SDS011;63139;52.018;8.552;2023-07-29T09:20:01;1.67;;;1.50;;
74632;SDS011;63139;52.018;8.552;2023-07-29T09:22:32;1.50;;;1.40;;
74632;SDS011;63139;52.018;8.552;2023-07-29T09:25:01;1.25;;;1.20;;
74632;SDS011;63139;52.018;8.552;2023-07-29T09:27:29;1.50;;;1.40;;
74632;SDS011;63139;52.018;8.552;2023-07-29T09:29:59;1.48;;;1.38;;
74632;SDS011;63139;52.018;8.552;2023-07-29T09:32:27;1.40;;;1.30;;
74632;SDS011;63139;52.018;8.552;2023-07-29T09:34:55;1.40;;;1.30;;
74632;SDS011;63139;52.018;8.552;2023-07-29T09:37:23;1.30;;;1.20;;
74632;SDS011;63139;52.018;8.552;2023-07-29T09:39:53;1.15;;;1.15;;
74632;SDS011;63139;52.018;8.552;2023-07-29T09:42:21;1.50;;;1.10;;
74632;SDS011;63139;52.018;8.552;2023-07-29T09:44:50;1.10;;;1.10;;
74632;SDS011;63139;52.018;8.552;2023-07-29T09:47:19;1.27;;;1.10;;
74632;SDS011;63139;52.018;8.552;2023-07-29T09:49:48;1.10;;;1.10;;
74632;SDS011;63139;52.018;8.552;2023-07-29T09:52:17;1.42;;;1.10;;
74632;SDS011;63139;52.018;8.552;2023-07-29T09:54:46;1.25;;;1.15;;
74632;SDS011;63139;52.018;8.552;2023-07-29T09:57:16;1.45;;;1.20;;
74632;SDS011;63139;52.018;8.552;2023-07-29T09:59:53;1.00;;;1.00;;
74632;SDS011;63139;52.018;8.552;2023-07-29T10:02:22;1.10;;;1.10;;
74632;SDS011;63139;52.018;8.552;2023-07-29T10:04:52;1.67;;;1.40;;
74632;SDS011;63139;52.018;8.552;2023-07-29T10:07:20;1.42;;;1.30;;
74632;SDS011;63139;52.018;8.552;2023-07-29T10:09:48;1.40;;;1.30;;
74632;SDS011;63139;52.018;8.552;2023-07-29T10:12:20;1.95;;;1.20;;
74632;SDS011;63139;52.018;8.552;2023-07-29T10:14:50;1.77;;;1.30;;
74632;SDS011;63139;52.018;8.552;2023-07-29T10:17:18;1.58;;;1.40;;
74632;SDS011;63139;52.018;8.552;2023-07-29T10:19:48;1.30;;;1.20;;
74632;SDS011;63139;52.018;8.552;2023-07-29T10:22:17;2.25;;;1.13;;
74632;SDS011;63139;52.018;8.552;2023-07-29T10:24:49;1.52;;;0.98;;
74632;SDS011;63139;52.018;8.552;2023-07-29T10:27:24;1.25;;;1.20;;
74632;SDS011;63139;52.018;8.552;2023-07-29T10:29:55;1.00;;;0.90;;
74632;SDS011;63139;52.018;8.552;2023-07-29T10:32:24;1.23;;;1.00;;
74632;SDS011;63139;52.018;8.552;2023-07-29T10:34:54;1.15;;;1.08;;
74632;SDS011;63139;52.018;8.552;2023-07-29T10:37:22;3.55;;;1.10;;
74632;SDS011;63139;52.018;8.552;2023-07-29T10:39:52;1.80;;;1.10;;
74632;SDS011;63139;52.018;8.552;2023-07-29T10:42:21;2.70;;;1.10;;
74632;SDS011;63139;52.018;8.552;2023-07-29T10:44:51;1.13;;;1.02;;
74632;SDS011;63139;52.018;8.552;2023-07-29T10:47:21;1.00;;;1.00;;
74632;SDS011;63139;52.018;8.552;2023-07-29T10:49:51;1.00;;;1.00;;
74632;SDS011;63139;52.018;8.552;2023-07-29T10:52:28;2.88;;;1.10;;
74632;SDS011;63139;52.018;8.552;2023-07-29T10:55:23;2.40;;;1.10;;
74632;SDS011;63139;52.018;8.552;2023-07-29T10:58:08;1.20;;;1.10;;
74632;SDS011;63139;52.018;8.552;2023-07-29T11:00:41;1.20;;;1.10;;
74632;SDS011;63139;52.018;8.552;2023-07-29T11:03:11;1.77;;;1.20;;
74632;SDS011;63139;52.018;8.552;2023-07-29T11:05:41;1.00;;;1.00;;
74632;SDS011;63139;52.018;8.552;2023-07-29T11:08:18;3.60;;;1.48;;
74632;SDS011;63139;52.018;8.552;2023-07-29T11:11:03;1.48;;;1.10;;
74632;SDS011;63139;52.018;8.552;2023-07-29T11:13:33;1.10;;;1.00;;
74632;SDS011;63139;52.018;8.552;2023-07-29T11:16:05;1.13;;;0.80;;
74632;SDS011;63139;52.018;8.552;2023-07-29T11:18:34;1.90;;;1.10;;
74632;SDS011;63139;52.018;8.552;2023-07-29T11:21:03;1.10;;;1.00;;
74632;SDS011;63139;52.018;8.552;2023-07-29T11:23:32;1.10;;;1.00;;
74632;SDS011;63139;52.018;8.552;2023-07-29T11:26:02;1.67;;;0.90;;
74632;SDS011;63139;52.018;8.552;2023-07-29T11:28:30;1.20;;;1.10;;
74632;SDS011;63139;52.018;8.552;2023-07-29T11:30:58;1.90;;;1.40;;
74632;SDS011;63139;52.018;8.552;2023-07-29T11:33:28;0.93;;;0.93;;
74632;SDS011;63139;52.018;8.552;2023-07-29T11:35:56;1.85;;;1.20;;
74632;SDS011;63139;52.018;8.552;2023-07-29T11:38:24;1.15;;;1.10;;
74632;SDS011;63139;52.018;8.552;2023-07-29T11:40:56;1.00;;;1.00;;
74632;SDS011;63139;52.018;8.552;2023-07-29T11:43:26;1.70;;;1.10;;
74632;SDS011;63139;52.018;8.552;2023-07-29T11:45:54;1.13;;;1.02;;
74632;SDS011;63139;52.018;8.552;2023-07-29T11:48:31;1.20;;;1.10;;
74632;SDS011;63139;52.018;8.552;2023-07-29T11:51:00;1.00;;;1.00;;
74632;SDS011;63139;52.018;8.552;2023-07-29T11:53:28;1.08;;;1.08;;
74632;SDS011;63139;52.018;8.552;2023-07-29T11:55:57;1.25;;;1.15;;
74632;SDS011;63139;52.018;8.552;2023-07-29T11:58:26;2.05;;;1.20;;
74632;SDS011;63139;52.018;8.552;2023-07-29T12:00:54;1.35;;;1.25;;
74632;SDS011;63139;52.018;8.552;2023-07-29T12:03:23;3.28;;;1.30;;
74632;SDS011;63139;52.018;8.552;2023-07-29T12:05:53;1.10;;;1.10;;
74632;SDS011;63139;52.018;8.552;2023-07-29T12:08:21;1.63;;;1.30;;
74632;SDS011;63139;52.018;8.552;2023-07-29T12:10:50;1.63;;;1.42;;
74632;SDS011;63139;52.018;8.552;2023-07-29T12:13:18;2.55;;;1.27;;
74632;SDS011;63139;52.018;8.552;2023-07-29T12:15:46;1.27;;;1.27;;
74632;SDS011;63139;52.018;8.552;2023-07-29T12:18:14;1.77;;;1.35;;
74632;SDS011;63139;52.018;8.552;2023-07-29T12:20:43;1.80;;;1.30;;
74632;SDS011;63139;52.018;8.552;2023-07-29T12:23:12;1.52;;;1.40;;
74632;SDS011;63139;52.018;8.552;2023-07-29T12:25:40;1.33;;;1.23;;
74632;SDS011;63139;52.018;8.552;2023-07-29T12:28:08;1.70;;;1.55;;
74632;SDS011;63139;52.018;8.552;2023-07-29T12:30:41;1.50;;;1.40;;
74632;SDS011;63139;52.018;8.552;2023-07-29T12:33:09;3.45;;;1.50;;
74632;SDS011;63139;52.018;8.552;2023-07-29T12:35:37;1.70;;;1.60;;
74632;SDS011;63139;52.018;8.552;2023-07-29T12:38:06;1.60;;;1.50;;
74632;SDS011;63139;52.018;8.552;2023-07-29T12:40:37;1.92;;;1.73;;
74632;SDS011;63139;52.018;8.552;2023-07-29T12:43:08;1.75;;;1.65;;
74632;SDS011;63139;52.018;8.552;2023-07-29T12:45:37;2.05;;;1.50;;
74632;SDS011;63139;52.018;8.552;2023-07-29T12:48:06;1.70;;;1.60;;
74632;SDS011;63139;52.018;8.552;2023-07-29T12:50:35;1.58;;;1.48;;
74632;SDS011;63139;52.018;8.552;2023-07-29T12:53:04;1.70;;;1.60;;
74632;SDS011;63139;52.018;8.552;2023-07-29T12:55:32;2.10;;;1.60;;
74632;SDS011;63139;52.018;8.552;2023-07-29T12:58:02;1.83;;;1.60;;
74632;SDS011;63139;52.018;8.552;2023-07-29T13:00:30;1.60;;;1.50;;
74632;SDS011;63139;52.018;8.552;2023-07-29T13:02:58;1.50;;;1.40;;
74632;SDS011;63139;52.018;8.552;2023-07-29T13:05:27;1.40;;;1.30;;
74632;SDS011;63139;52.018;8.552;2023-07-29T13:07:55;3.35;;;1.50;;
74632;SDS011;63139;52.018;8.552;2023-07-29T13:10:22;1.40;;;1.30;;
74632;SDS011;63139;52.018;8.552;2023-07-29T13:12:51;1.73;;;1.40;;
74632;SDS011;63139;52.018;8.552;2023-07-29T13:15:20;3.03;;;1.33;;
74632;SDS011;63139;52.018;8.552;2023-07-29T13:17:48;1.40;;;1.30;;
74632;SDS011;63139;52.018;8.552;2023-07-29T13:20:16;1.35;;;1.25;;
74632;SDS011;63139;52.018;8.552;2023-07-29T13:22:44;1.40;;;1.30;;
74632;SDS011;63139;52.018;8.552;2023-07-29T13:25:12;1.17;;;1.13;;
74632;SDS011;63139;52.018;8.552;2023-07-29T13:27:40;1.58;;;1.30;;
74632;SDS011;63139;52.018;8.552;2023-07-29T13:30:08;1.23;;;1.10;;
74632;SDS011;63139;52.018;8.552;2023-07-29T13:32:38;1.45;;;1.33;;
74632;SDS011;63139;52.018;8.552;2023-07-29T13:35:06;1.40;;;1.30;;
74632;SDS011;63139;52.018;8.552;2023-07-29T13:37:35;1.23;;;1.20;;
74632;SDS011;63139;52.018;8.552;2023-07-29T13:40:03;2.63;;;1.23;;
74632;SDS011;63139;52.018;8.552;2023-07-29T13:42:32;1.20;;;1.20;;
74632;SDS011;63139;52.018;8.552;2023-07-29T13:45:00;1.58;;;1.13;;
74632;SDS011;63139;52.018;8.552;2023-07-29T13:47:28;1.30;;;1.23;;
74632;SDS011;63139;52.018;8.552;2023-07-29T13:49:57;2.10;;;1.20;;
74632;SDS011;63139;52.018;8.552;2023-07-29T13:52:26;1.30;;;1.20;;
74632;SDS011;63139;52.018;8.552;2023-07-29T13:54:54;1.40;;;1.30;;
74632;SDS011;63139;52.018;8.552;2023-07-29T13:57:22;1.33;;;1.23;;
74632;SDS011;63139;52.018;8.552;2023-07-29T13:59:50;1.60;;;1.30;;
74632;SDS011;63139;52.018;8.552;2023-07-29T14:02:18;2.00;;;1.38;;
74632;SDS011;63139;52.018;8.552;2023-07-29T14:04:46;1.30;;;1.20;;
74632;SDS011;63139;52.018;8.552;2023-07-29T14:07:16;1.67;;;1.10;;
74632;SDS011;63139;52.018;8.552;2023-07-29T14:09:44;2.45;;;1.30;;
74632;SDS011;63139;52.018;8.552;2023-07-29T14:12:12;1.77;;;1.55;;
74632;SDS011;63139;52.018;8.552;2023-07-29T14:14:42;1.50;;;1.20;;
74632;SDS011;63139;52.018;8.552;2023-07-29T14:17:10;1.75;;;1.40;;
74632;SDS011;63139;52.018;8.552;2023-07-29T14:19:38;1.70;;;1.33;;
74632;SDS011;63139;52.018;8.552;2023-07-29T14:22:06;1.45;;;1.35;;
74632;SDS011;63139;52.018;8.552;2023-07-29T14:24:36;2.45;;;1.20;;
74632;SDS011;63139;52.018;8.552;2023-07-29T14:27:04;3.42;;;1.67;;
74632;SDS011;63139;52.018;8.552;2023-07-29T14:29:32;3.63;;;1.60;;
74632;SDS011;63139;52.018;8.552;2023-07-29T14:32:00;1.67;;;1.50;;
74632;SDS011;63139;52.018;8.552;2023-07-29T14:34:29;2.55;;;1.60;;
74632;SDS011;63139;52.018;8.552;2023-07-29T14:36:57;1.60;;;1.50;;
74632;SDS011;63139;52.018;8.552;2023-07-29T14:39:25;2.63;;;1.50;;
74632;SDS011;63139;52.018;8.552;2023-07-29T14:41:55;1.40;;;1.30;;
74632;SDS011;63139;52.018;8.552;2023-07-29T14:44:23;1.40;;;1.30;;
74632;SDS011;63139;52.018;8.552;2023-07-29T14:46:51;2.15;;;1.23;;
74632;SDS011;63139;52.018;8.552;2023-07-29T14:49:20;2.60;;;1.67;;
74632;SDS011;63139;52.018;8.552;2023-07-29T14:51:48;1.73;;;1.55;;
74632;SDS011;63139;52.018;8.552;2023-07-29T14:54:16;2.00;;;1.80;;
74632;SDS011;63139;52.018;8.552;2023-07-29T14:56:44;2.70;;;2.00;;
74632;SDS011;63139;52.018;8.552;2023-07-29T14:59:13;2.25;;;2.05;;
74632;SDS011;63139;52.018;8.552;2023-07-29T15:01:41;2.40;;;2.20;;
74632;SDS011;63139;52.018;8.552;2023-07-29T15:04:10;2.47;;;2.28;;
74632;SDS011;63139;52.018;8.552;2023-07-29T15:06:37;4.18;;;2.60;;
74632;SDS011;63139;52.018;8.552;2023-07-29T15:09:06;2.50;;;2.30;;
74632;SDS011;63139;52.018;8.552;2023-07-29T15:11:34;3.22;;;2.20;;
74632;SDS011;63139;52.018;8.552;2023-07-29T15:14:03;2.58;;;2.38;;
74632;SDS011;63139;52.018;8.552;2023-07-29T15:16:32;4.90;;;2.78;;
74632;SDS011;63139;52.018;8.552;2023-07-29T15:19:02;3.90;;;2.88;;
74632;SDS011;63139;52.018;8.552;2023-07-29T15:21:30;4.78;;;2.78;;
74632;SDS011;63139;52.018;8.552;2023-07-29T15:24:00;10.40;;;4.15;;
74632;SDS011;63139;52.018;8.552;2023-07-29T15:26:28;7.55;;;4.30;;
74632;SDS011;63139;52.018;8.552;2023-07-29T15:28:57;5.45;;;3.90;;
74632;SDS011;63139;52.018;8.552;2023-07-29T15:31:25;7.07;;;3.42;;
74632;SDS011;63139;52.018;8.552;2023-07-29T15:33:55;4.05;;;3.60;;
74632;SDS011;63139;52.018;8.552;2023-07-29T15:36:23;6.68;;;4.35;;
74632;SDS011;63139;52.018;8.552;2023-07-29T15:38:51;7.60;;;5.30;;
74632;SDS011;63139;52.018;8.552;2023-07-29T15:41:19;7.82;;;5.88;;
74632;SDS011;63139;52.018;8.552;2023-07-29T15:43:47;8.13;;;5.40;;
74632;SDS011;63139;52.018;8.552;2023-07-29T15:46:15;11.40;;;4.05;;
74632;SDS011;63139;52.018;8.552;2023-07-29T15:48:44;5.35;;;3.63;;
74632;SDS011;63139;52.018;8.552;2023-07-29T15:51:13;4.70;;;3.70;;
74632;SDS011;63139;52.018;8.552;2023-07-29T15:53:41;5.03;;;4.00;;
74632;SDS011;63139;52.018;8.552;2023-07-29T15:56:09;5.43;;;2.90;;
74632;SDS011;63139;52.018;8.552;2023-07-29T15:58:37;3.35;;;2.55;;
74632;SDS011;63139;52.018;8.552;2023-07-29T16:01:05;2.42;;;2.22;;
74632;SDS011;63139;52.018;8.552;2023-07-29T16:03:33;3.17;;;2.50;;
74632;SDS011;63139;52.018;8.552;2023-07-29T16:06:02;3.28;;;2.20;;
74632;SDS011;63139;52.018;8.552;2023-07-29T16:08:31;2.30;;;2.10;;
74632;SDS011;63139;52.018;8.552;2023-07-29T16:10:59;4.03;;;2.00;;
74632;SDS011;63139;52.018;8.552;2023-07-29T16:13:27;1.80;;;1.70;;
74632;SDS011;63139;52.018;8.552;2023-07-29T16:15:55;3.40;;;1.90;;
74632;SDS011;63139;52.018;8.552;2023-07-29T16:18:25;2.33;;;1.90;;
74632;SDS011;63139;52.018;8.552;2023-07-29T16:20:53;1.98;;;1.80;;
74632;SDS011;63139;52.018;8.552;2023-07-29T16:23:22;2.30;;;1.80;;
74632;SDS011;63139;52.018;8.552;2023-07-29T16:25:52;1.75;;;1.65;;
74632;SDS011;63139;52.018;8.552;2023-07-29T16:28:20;3.25;;;1.80;;
74632;SDS011;63139;52.018;8.552;2023-07-29T16:30:48;2.42;;;1.90;;
74632;SDS011;63139;52.018;8.552;2023-07-29T16:33:16;2.25;;;1.75;;
74632;SDS011;63139;52.018;8.552;2023-07-29T16:35:44;1.63;;;1.30;;
74632;SDS011;63139;52.018;8.552;2023-07-29T16:38:12;2.42;;;1.55;;
74632;SDS011;63139;52.018;8.552;2023-07-29T16:40:40;2.00;;;1.55;;
74632;SDS011;63139;52.018;8.552;2023-07-29T16:43:29;2.13;;;1.80;;
74632;SDS011;63139;52.018;8.552;2023-07-29T16:45:57;5.28;;;1.65;;
74632;SDS011;63139;52.018;8.552;2023-07-29T16:48:25;3.72;;;1.70;;
74632;SDS011;63139;52.018;8.552;2023-07-29T16:50:53;1.50;;;1.40;;
74632;SDS011;63139;52.018;8.552;2023-07-29T16:53:21;3.13;;;1.55;;
74632;SDS011;63139;52.018;8.552;2023-07-29T16:55:50;2.15;;;1.45;;
74632;SDS011;63139;52.018;8.552;2023-07-29T16:58:17;4.18;;;1.52;;
74632;SDS011;63139;52.018;8.552;2023-07-29T17:00:48;3.42;;;1.80;;
74632;SDS011;63139;52.018;8.552;2023-07-29T17:03:16;2.40;;;1.45;;
74632;SDS011;63139;52.018;8.552;2023-07-29T17:05:46;1.40;;;1.30;;
74632;SDS011;63139;52.018;8.552;2023-07-29T17:08:14;1.77;;;1.50;;
74632;SDS011;63139;52.018;8.552;2023-07-29T17:10:42;2.17;;;1.60;;
74632;SDS011;63139;52.018;8.552;2023-07-29T17:13:10;2.97;;;1.60;;
74632;SDS011;63139;52.018;8.552;2023-07-29T17:15:38;1.33;;;1.20;;
74632;SDS011;63139;52.018;8.552;2023-07-29T17:18:08;3.67;;;1.10;;
74632;SDS011;63139;52.018;8.552;2023-07-29T17:20:36;1.00;;;1.00;;
74632;SDS011;63139;52.018;8.552;2023-07-29T17:23:04;1.63;;;1.25;;
74632;SDS011;63139;52.018;8.552;2023-07-29T17:25:32;1.02;;;1.00;;
74632;SDS011;63139;52.018;8.552;2023-07-29T17:28:00;1.40;;;1.20;;
74632;SDS011;63139;52.018;8.552;2023-07-29T17:30:29;1.38;;;1.17;;
74632;SDS011;63139;52.018;8.552;2023-07-29T17:33:01;1.10;;;1.10;;
74632;SDS011;63139;52.018;8.552;2023-07-29T17:35:31;1.13;;;1.10;;
74632;SDS011;63139;52.018;8.552;2023-07-29T17:37:59;1.98;;;1.40;;
74632;SDS011;63139;52.018;8.552;2023-07-29T17:40:28;1.98;;;1.40;;
74632;SDS011;63139;52.018;8.552;2023-07-29T17:42:56;1.48;;;1.27;;
74632;SDS011;63139;52.018;8.552;2023-07-29T17:45:24;1.38;;;1.20;;
74632;SDS011;63139;52.018;8.552;2023-07-29T17:47:52;1.45;;;1.33;;
74632;SDS011;63139;52.018;8.552;2023-07-29T17:50:20;1.48;;;1.30;;
74632;SDS011;63139;52.018;8.552;2023-07-29T17:52:49;1.27;;;1.17;;
74632;SDS011;63139;52.018;8.552;2023-07-29T17:55:17;1.45;;;1.17;;
74632;SDS011;63139;52.018;8.552;2023-07-29T17:57:45;1.70;;;1.60;;
74632;SDS011;63139;52.018;8.552;2023-07-29T18:00:13;2.47;;;1.23;;
74632;SDS011;63139;52.018;8.552;2023-07-29T18:02:41;1.27;;;1.17;;
74632;SDS011;63139;52.018;8.552;2023-07-29T18:05:10;2.65;;;1.30;;
74632;SDS011;63139;52.018;8.552;2023-07-29T18:07:38;1.30;;;1.20;;
74632;SDS011;63139;52.018;8.552;2023-07-29T18:10:08;2.30;;;1.30;;
74632;SDS011;63139;52.018;8.552;2023-07-29T18:12:37;2.05;;;1.60;;
74632;SDS011;63139;52.018;8.552;2023-07-29T18:15:08;1.70;;;1.60;;
74632;SDS011;63139;52.018;8.552;2023-07-29T18:17:37;2.95;;;1.42;;
74632;SDS011;63139;52.018;8.552;2023-07-29T18:20:05;2.53;;;1.40;;
74632;SDS011;63139;52.018;8.552;2023-07-29T18:22:34;2.13;;;1.70;;
74632;SDS011;63139;52.018;8.552;2023-07-29T18:25:03;2.05;;;1.60;;
74632;SDS011;63139;52.018;8.552;2023-07-29T18:27:32;1.83;;;1.52;;
74632;SDS011;63139;52.018;8.552;2023-07-29T18:30:01;1.90;;;1.20;;
74632;SDS011;63139;52.018;8.552;2023-07-29T18:32:29;1.60;;;1.48;;
74632;SDS011;63139;52.018;8.552;2023-07-29T18:34:57;2.20;;;1.45;;
74632;SDS011;63139;52.018;8.552;2023-07-29T18:37:25;3.95;;;1.40;;
74632;SDS011;63139;52.018;8.552;2023-07-29T18:39:53;2.22;;;1.60;;
74632;SDS011;63139;52.018;8.552;2023-07-29T18:42:21;3.58;;;1.50;;
74632;SDS011;63139;52.018;8.552;2023-07-29T18:44:51;1.60;;;1.50;;
74632;SDS011;63139;52.018;8.552;2023-07-29T18:47:19;2.47;;;1.45;;
74632;SDS011;63139;52.018;8.552;2023-07-29T18:49:47;1.58;;;1.33;;
74632;SDS011;63139;52.018;8.552;2023-07-29T18:52:15;1.73;;;1.50;;
74632;SDS011;63139;52.018;8.552;2023-07-29T18:54:43;3.95;;;1.60;;
74632;SDS011;63139;52.018;8.552;2023-07-29T18:57:12;1.60;;;1.42;;
74632;SDS011;63139;52.018;8.552;2023-07-29T18:59:40;1.52;;;1.42;;
74632;SDS011;63139;52.018;8.552;2023-07-29T19:02:10;2.53;;;1.60;;
74632;SDS011;63139;52.018;8.552;2023-07-29T19:04:38;1.85;;;1.55;;
74632;SDS011;63139;52.018;8.552;2023-07-29T19:07:06;1.60;;;1.50;;
74632;SDS011;63139;52.018;8.552;2023-07-29T19:09:34;2.65;;;1.45;;
74632;SDS011;63139;52.018;8.552;2023-07-29T19:12:02;2.95;;;1.80;;
74632;SDS011;63139;52.018;8.552;2023-07-29T19:14:30;3.90;;;1.60;;
74632;SDS011;63139;52.018;8.552;2023-07-29T19:16:58;1.80;;;1.65;;
74632;SDS011;63139;52.018;8.552;2023-07-29T19:19:28;1.92;;;1.73;;
74632;SDS011;63139;52.018;8.552;2023-07-29T19:21:56;1.70;;;1.60;;
74632;SDS011;63139;52.018;8.552;2023-07-29T19:24:24;4.45;;;1.80;;
74632;SDS011;63139;52.018;8.552;2023-07-29T19:26:52;1.83;;;1.73;;
74632;SDS011;63139;52.018;8.552;2023-07-29T19:29:21;2.85;;;1.63;;
74632;SDS011;63139;52.018;8.552;2023-07-29T19:31:49;4.07;;;1.92;;
74632;SDS011;63139;52.018;8.552;2023-07-29T19:34:17;2.45;;;1.83;;
74632;SDS011;63139;52.018;8.552;2023-07-29T19:36:48;3.80;;;1.67;;
74632;SDS011;63139;52.018;8.552;2023-07-29T19:39:16;1.73;;;1.63;;
74632;SDS011;63139;52.018;8.552;2023-07-29T19:41:45;3.67;;;1.52;;
74632;SDS011;63139;52.018;8.552;2023-07-29T19:44:13;2.58;;;1.50;;
74632;SDS011;63139;52.018;8.552;2023-07-29T19:46:48;1.70;;;1.60;;
74632;SDS011;63139;52.018;8.552;2023-07-29T19:49:16;1.85;;;1.70;;
74632;SDS011;63139;52.018;8.552;2023-07-29T19:51:46;3.65;;;1.80;;
74632;SDS011;63139;52.018;8.552;2023-07-29T19:54:14;2.33;;;1.67;;
74632;SDS011;63139;52.018;8.552;2023-07-29T19:56:42;1.75;;;1.65;;
74632;SDS011;63139;52.018;8.552;2023-07-29T19:59:10;2.10;;;1.60;;
74632;SDS011;63139;52.018;8.552;2023-07-29T20:01:38;2.80;;;1.98;;
74632;SDS011;63139;52.018;8.552;2023-07-29T20:04:07;2.53;;;2.30;;
74632;SDS011;63139;52.018;8.552;2023-07-29T20:06:35;3.05;;;2.15;;
74632;SDS011;63139;52.018;8.552;2023-07-29T20:09:05;2.33;;;2.13;;
74632;SDS011;63139;52.018;8.552;2023-07-29T20:11:33;3.15;;;2.10;;
74632;SDS011;63139;52.018;8.552;2023-07-29T20:14:02;3.63;;;2.35;;
74632;SDS011;63139;52.018;8.552;2023-07-29T20:16:30;3.00;;;2.28;;
74632;SDS011;63139;52.018;8.552;2023-07-29T20:18:59;2.00;;;1.80;;
74632;SDS011;63139;52.018;8.552;2023-07-29T20:21:27;3.00;;;2.70;;
74632;SDS011;63139;52.018;8.552;2023-07-29T20:23:55;3.65;;;3.33;;
74632;SDS011;63139;52.018;8.552;2023-07-29T20:26:25;3.75;;;3.00;;
74632;SDS011;63139;52.018;8.552;2023-07-29T20:28:57;3.40;;;3.05;;
74632;SDS011;63139;52.018;8.552;2023-07-29T20:31:25;3.33;;;3.03;;
74632;SDS011;63139;52.018;8.552;2023-07-29T20:33:53;4.45;;;2.88;;
74632;SDS011;63139;52.018;8.552;2023-07-29T20:36:21;5.13;;;3.45;;
74632;SDS011;63139;52.018;8.552;2023-07-29T20:38:54;5.22;;;4.55;;
74632;SDS011;63139;52.018;8.552;2023-07-29T20:41:22;7.82;;;5.20;;
74632;SDS011;63139;52.018;8.552;2023-07-29T20:43:52;7.78;;;5.57;;
74632;SDS011;63139;52.018;8.552;2023-07-29T20:46:20;8.60;;;5.30;;
74632;SDS011;63139;52.018;8.552;2023-07-29T20:48:49;4.38;;;3.72;;
74632;SDS011;63139;52.018;8.552;2023-07-29T20:51:17;4.88;;;3.35;;
74632;SDS011;63139;52.018;8.552;2023-07-29T20:53:46;5.32;;;3.35;;
74632;SDS011;63139;52.018;8.552;2023-07-29T20:56:14;3.30;;;2.83;;
74632;SDS011;63139;52.018;8.552;2023-07-29T20:58:44;4.78;;;3.50;;
74632;SDS011;63139;52.018;8.552;2023-07-29T21:01:13;4.93;;;3.50;;
74632;SDS011;63139;52.018;8.552;2023-07-29T21:03:41;3.90;;;2.95;;
74632;SDS011;63139;52.018;8.552;2023-07-29T21:06:09;2.92;;;2.63;;
74632;SDS011;63139;52.018;8.552;2023-07-29T21:08:38;4.30;;;2.55;;
74632;SDS011;63139;52.018;8.552;2023-07-29T21:11:06;3.45;;;2.70;;
74632;SDS011;63139;52.018;8.552;2023-07-29T21:13:35;5.25;;;2.63;;
74632;SDS011;63139;52.018;8.552;2023-07-29T21:16:03;3.05;;;2.70;;
74632;SDS011;63139;52.018;8.552;2023-07-29T21:18:32;2.47;;;2.25;;
74632;SDS011;63139;52.018;8.552;2023-07-29T21:21:01;3.40;;;2.30;;
74632;SDS011;63139;52.018;8.552;2023-07-29T21:23:29;2.60;;;2.15;;
74632;SDS011;63139;52.018;8.552;2023-07-29T21:25:57;3.08;;;2.30;;
74632;SDS011;63139;52.018;8.552;2023-07-29T21:28:26;3.15;;;2.22;;
74632;SDS011;63139;52.018;8.552;2023-07-29T21:30:55;3.88;;;2.20;;
74632;SDS011;63139;52.018;8.552;2023-07-29T21:33:23;2.45;;;2.25;;
74632;SDS011;63139;52.018;8.552;2023-07-29T21:35:55;4.28;;;2.70;;
74632;SDS011;63139;52.018;8.552;2023-07-29T21:38:23;2.20;;;2.00;;
74632;SDS011;63139;52.018;8.552;2023-07-29T21:40:55;2.42;;;2.20;;
74632;SDS011;63139;52.018;8.552;2023-07-29T21:43:23;3.78;;;2.92;;
74632;SDS011;63139;52.018;8.552;2023-07-29T21:45:51;2.80;;;2.50;;
74632;SDS011;63139;52.018;8.552;2023-07-29T21:48:20;2.67;;;2.42;;
74632;SDS011;63139;52.018;8.552;2023-07-29T21:50:52;2.80;;;2.55;;
74632;SDS011;63139;52.018;8.552;2023-07-29T21:53:24;2.63;;;2.42;;
74632;SDS011;63139;52.018;8.552;2023-07-29T21:55:52;2.53;;;2.33;;
74632;SDS011;63139;52.018;8.552;2023-07-29T21:58:20;3.25;;;2.60;;
74632;SDS011;63139;52.018;8.552;2023-07-29T22:00:50;6.18;;;3.20;;
74632;SDS011;63139;52.018;8.552;2023-07-29T22:03:19;3.70;;;2.80;;
74632;SDS011;63139;52.018;8.552;2023-07-29T22:05:49;5.43;;;3.22;;
74632;SDS011;63139;52.018;8.552;2023-07-29T22:08:18;4.07;;;3.38;;
74632;SDS011;63139;52.018;8.552;2023-07-29T22:10:47;5.45;;;3.20;;
74632;SDS011;63139;52.018;8.552;2023-07-29T22:13:17;3.53;;;3.00;;
74632;SDS011;63139;52.018;8.552;2023-07-29T22:15:45;5.68;;;3.50;;
74632;SDS011;63139;52.018;8.552;2023-07-29T22:18:13;3.65;;;2.90;;